sensor_id;sensor_type;location;lat;lon;timestamp;P1;durP1;ratioP1;P2;durP2;ratioP2
75362;SDS011;64122;51.988;5.892;2022-12-18T07:28:31;20.13;;;7.55;;
75362;SDS011;64122;51.988;5.892;2022-12-18T07:31:02;15.13;;;6.53;;
75362;SDS011;64122;51.988;5.892;2022-12-18T07:33:32;17.70;;;7.25;;
75362;SDS011;64122;51.988;5.892;2022-12-18T07:36:02;16.85;;;7.95;;
75362;SDS011;64122;51.988;5.892;2022-12-18T07:38:33;17.33;;;7.38;;
75362;SDS011;64122;51.988;5.892;2022-12-18T07:41:04;17.52;;;6.97;;
75362;SDS011;64122;51.988;5.892;2022-12-18T07:43:38;16.52;;;7.60;;
75362;SDS011;64122;51.988;5.892;2022-12-18T07:46:08;18.92;;;7.72;;
75362;SDS011;64122;51.988;5.892;2022-12-18T07:48:39;19.65;;;7.47;;
75362;SDS011;64122;51.988;5.892;2022-12-18T07:51:08;17.77;;;8.07;;
75362;SDS011;64122;51.988;5.892;2022-12-18T07:53:38;18.13;;;7.70;;
75362;SDS011;64122;51.988;5.892;2022-12-18T07:56:10;12.70;;;6.50;;
75362;SDS011;64122;51.988;5.892;2022-12-18T07:58:45;15.40;;;7.03;;
75362;SDS011;64122;51.988;5.892;2022-12-18T08:01:15;14.18;;;7.03;;
75362;SDS011;64122;51.988;5.892;2022-12-18T08:03:44;16.52;;;8.25;;
75362;SDS011;64122;51.988;5.892;2022-12-18T08:06:14;14.45;;;6.78;;
75362;SDS011;64122;51.988;5.892;2022-12-18T08:08:43;15.65;;;7.70;;
75362;SDS011;64122;51.988;5.892;2022-12-18T08:11:12;13.98;;;6.88;;
75362;SDS011;64122;51.988;5.892;2022-12-18T08:13:41;14.15;;;6.43;;
75362;SDS011;64122;51.988;5.892;2022-12-18T08:16:13;17.42;;;8.02;;
75362;SDS011;64122;51.988;5.892;2022-12-18T08:18:42;15.85;;;6.90;;
75362;SDS011;64122;51.988;5.892;2022-12-18T08:21:13;16.70;;;7.80;;
75362;SDS011;64122;51.988;5.892;2022-12-18T08:23:43;17.50;;;7.53;;
75362;SDS011;64122;51.988;5.892;2022-12-18T08:26:13;19.17;;;7.07;;
75362;SDS011;64122;51.988;5.892;2022-12-18T08:28:45;16.10;;;7.50;;
75362;SDS011;64122;51.988;5.892;2022-12-18T08:31:15;16.67;;;7.60;;
75362;SDS011;64122;51.988;5.892;2022-12-18T08:33:44;14.20;;;6.55;;
75362;SDS011;64122;51.988;5.892;2022-12-18T08:36:14;15.65;;;7.25;;
75362;SDS011;64122;51.988;5.892;2022-12-18T08:38:43;14.45;;;7.20;;
75362;SDS011;64122;51.988;5.892;2022-12-18T08:41:13;15.02;;;7.13;;
75362;SDS011;64122;51.988;5.892;2022-12-18T08:43:46;16.15;;;7.78;;
75362;SDS011;64122;51.988;5.892;2022-12-18T08:46:32;13.18;;;6.75;;
75362;SDS011;64122;51.988;5.892;2022-12-18T08:49:03;14.43;;;6.40;;
75362;SDS011;64122;51.988;5.892;2022-12-18T08:51:33;14.23;;;5.53;;
75362;SDS011;64122;51.988;5.892;2022-12-18T08:54:03;12.35;;;5.80;;
75362;SDS011;64122;51.988;5.892;2022-12-18T08:56:33;15.23;;;7.05;;
75362;SDS011;64122;51.988;5.892;2022-12-18T08:59:05;15.30;;;6.93;;
75362;SDS011;64122;51.988;5.892;2022-12-18T09:01:35;15.40;;;6.90;;
75362;SDS011;64122;51.988;5.892;2022-12-18T09:04:04;15.55;;;6.82;;
75362;SDS011;64122;51.988;5.892;2022-12-18T09:06:33;14.00;;;6.30;;
75362;SDS011;64122;51.988;5.892;2022-12-18T09:09:02;12.90;;;6.32;;
75362;SDS011;64122;51.988;5.892;2022-12-18T09:11:32;12.65;;;6.38;;
75362;SDS011;64122;51.988;5.892;2022-12-18T09:14:02;13.43;;;6.55;;
75362;SDS011;64122;51.988;5.892;2022-12-18T09:16:34;15.38;;;6.22;;
75362;SDS011;64122;51.988;5.892;2022-12-18T09:19:03;15.35;;;6.88;;
75362;SDS011;64122;51.988;5.892;2022-12-18T09:21:34;12.52;;;6.50;;
75362;SDS011;64122;51.988;5.892;2022-12-18T09:24:04;15.43;;;9.43;;
75362;SDS011;64122;51.988;5.892;2022-12-18T09:26:34;16.80;;;8.32;;
75362;SDS011;64122;51.988;5.892;2022-12-18T09:29:04;20.02;;;9.02;;
75362;SDS011;64122;51.988;5.892;2022-12-18T09:31:36;16.60;;;7.10;;
75362;SDS011;64122;51.988;5.892;2022-12-18T09:34:07;17.05;;;7.63;;
75362;SDS011;64122;51.988;5.892;2022-12-18T09:36:36;13.45;;;6.55;;
75362;SDS011;64122;51.988;5.892;2022-12-18T09:39:06;15.52;;;7.43;;
75362;SDS011;64122;51.988;5.892;2022-12-18T09:41:39;18.38;;;11.90;;
75362;SDS011;64122;51.988;5.892;2022-12-18T09:44:19;15.80;;;7.68;;
75362;SDS011;64122;51.988;5.892;2022-12-18T09:49:43;15.60;;;6.78;;
75362;SDS011;64122;51.988;5.892;2022-12-18T09:52:15;12.52;;;6.03;;
75362;SDS011;64122;51.988;5.892;2022-12-18T09:54:49;13.13;;;7.13;;
75362;SDS011;64122;51.988;5.892;2022-12-18T09:57:22;13.68;;;7.05;;
75362;SDS011;64122;51.988;5.892;2022-12-18T09:59:54;12.00;;;6.57;;
75362;SDS011;64122;51.988;5.892;2022-12-18T10:02:26;14.63;;;6.40;;
75362;SDS011;64122;51.988;5.892;2022-12-18T10:05:04;13.10;;;6.15;;
75362;SDS011;64122;51.988;5.892;2022-12-18T10:07:42;14.02;;;6.32;;
75362;SDS011;64122;51.988;5.892;2022-12-18T10:10:21;12.25;;;5.78;;
75362;SDS011;64122;51.988;5.892;2022-12-18T10:13:00;12.10;;;5.38;;
75362;SDS011;64122;51.988;5.892;2022-12-18T10:15:39;13.07;;;5.65;;
75362;SDS011;64122;51.988;5.892;2022-12-18T10:18:21;13.05;;;6.53;;
75362;SDS011;64122;51.988;5.892;2022-12-18T10:21:00;14.40;;;7.00;;
75362;SDS011;64122;51.988;5.892;2022-12-18T10:23:36;12.20;;;6.88;;
75362;SDS011;64122;51.988;5.892;2022-12-18T10:26:10;12.18;;;6.43;;
75362;SDS011;64122;51.988;5.892;2022-12-18T10:28:41;14.07;;;6.25;;
75362;SDS011;64122;51.988;5.892;2022-12-18T10:31:12;12.32;;;5.60;;
75362;SDS011;64122;51.988;5.892;2022-12-18T10:33:44;14.20;;;6.70;;
75362;SDS011;64122;51.988;5.892;2022-12-18T10:36:16;14.40;;;6.72;;
75362;SDS011;64122;51.988;5.892;2022-12-18T10:38:45;21.58;;;12.35;;
75362;SDS011;64122;51.988;5.892;2022-12-18T10:41:23;16.75;;;8.55;;
75362;SDS011;64122;51.988;5.892;2022-12-18T10:44:10;14.10;;;7.88;;
75362;SDS011;64122;51.988;5.892;2022-12-18T10:46:41;18.00;;;6.68;;
75362;SDS011;64122;51.988;5.892;2022-12-18T10:49:18;13.88;;;6.10;;
75362;SDS011;64122;51.988;5.892;2022-12-18T10:51:52;16.50;;;6.20;;
75362;SDS011;64122;51.988;5.892;2022-12-18T10:54:34;14.82;;;6.97;;
75362;SDS011;64122;51.988;5.892;2022-12-18T10:57:16;16.27;;;6.50;;
75362;SDS011;64122;51.988;5.892;2022-12-18T10:59:58;13.10;;;6.90;;
75362;SDS011;64122;51.988;5.892;2022-12-18T11:02:33;13.60;;;7.03;;
75362;SDS011;64122;51.988;5.892;2022-12-18T11:05:08;15.77;;;7.35;;
75362;SDS011;64122;51.988;5.892;2022-12-18T11:07:55;14.55;;;6.82;;
75362;SDS011;64122;51.988;5.892;2022-12-18T11:10:26;13.95;;;7.32;;
75362;SDS011;64122;51.988;5.892;2022-12-18T11:13:09;13.73;;;6.85;;
75362;SDS011;64122;51.988;5.892;2022-12-18T11:15:40;15.85;;;6.93;;
75362;SDS011;64122;51.988;5.892;2022-12-18T11:18:16;15.20;;;7.82;;
75362;SDS011;64122;51.988;5.892;2022-12-18T11:20:51;14.77;;;7.00;;
75362;SDS011;64122;51.988;5.892;2022-12-18T11:23:26;16.67;;;7.60;;
75362;SDS011;64122;51.988;5.892;2022-12-18T11:25:57;14.40;;;6.47;;
75362;SDS011;64122;51.988;5.892;2022-12-18T11:28:34;16.40;;;7.78;;
75362;SDS011;64122;51.988;5.892;2022-12-18T11:31:17;16.38;;;8.05;;
75362;SDS011;64122;51.988;5.892;2022-12-18T11:34:01;13.10;;;6.78;;
75362;SDS011;64122;51.988;5.892;2022-12-18T11:36:38;14.48;;;6.95;;
75362;SDS011;64122;51.988;5.892;2022-12-18T11:39:15;16.40;;;7.00;;
75362;SDS011;64122;51.988;5.892;2022-12-18T11:41:50;16.83;;;7.43;;
75362;SDS011;64122;51.988;5.892;2022-12-18T11:44:41;12.85;;;6.63;;
75362;SDS011;64122;51.988;5.892;2022-12-18T11:47:18;16.55;;;7.43;;
75362;SDS011;64122;51.988;5.892;2022-12-18T11:49:55;18.17;;;7.93;;
75362;SDS011;64122;51.988;5.892;2022-12-18T11:52:30;16.52;;;7.40;;
75362;SDS011;64122;51.988;5.892;2022-12-18T11:55:08;17.05;;;7.20;;
75362;SDS011;64122;51.988;5.892;2022-12-18T11:57:42;13.55;;;6.57;;
75362;SDS011;64122;51.988;5.892;2022-12-18T12:00:17;16.90;;;8.07;;
75362;SDS011;64122;51.988;5.892;2022-12-18T12:02:54;14.98;;;7.65;;
75362;SDS011;64122;51.988;5.892;2022-12-18T12:05:46;16.90;;;7.80;;
75362;SDS011;64122;51.988;5.892;2022-12-18T12:08:26;13.95;;;7.78;;
75362;SDS011;64122;51.988;5.892;2022-12-18T12:11:08;17.45;;;8.48;;
75362;SDS011;64122;51.988;5.892;2022-12-18T12:13:44;14.82;;;7.28;;
75362;SDS011;64122;51.988;5.892;2022-12-18T12:16:22;16.02;;;7.57;;
75362;SDS011;64122;51.988;5.892;2022-12-18T12:19:02;15.20;;;7.28;;
75362;SDS011;64122;51.988;5.892;2022-12-18T12:21:45;16.90;;;7.30;;
75362;SDS011;64122;51.988;5.892;2022-12-18T12:24:24;14.68;;;7.38;;
75362;SDS011;64122;51.988;5.892;2022-12-18T12:27:05;14.65;;;7.22;;
75362;SDS011;64122;51.988;5.892;2022-12-18T12:29:46;13.25;;;7.10;;
75362;SDS011;64122;51.988;5.892;2022-12-18T12:32:30;17.10;;;8.73;;
75362;SDS011;64122;51.988;5.892;2022-12-18T12:35:18;16.17;;;7.30;;
75362;SDS011;64122;51.988;5.892;2022-12-18T12:38:02;16.55;;;7.35;;
75362;SDS011;64122;51.988;5.892;2022-12-18T12:40:37;16.35;;;8.27;;
75362;SDS011;64122;51.988;5.892;2022-12-18T12:43:24;15.32;;;7.90;;
75362;SDS011;64122;51.988;5.892;2022-12-18T12:46:03;15.20;;;7.38;;
75362;SDS011;64122;51.988;5.892;2022-12-18T12:48:39;18.10;;;7.72;;
75362;SDS011;64122;51.988;5.892;2022-12-18T12:51:16;14.25;;;7.43;;
75362;SDS011;64122;51.988;5.892;2022-12-18T12:53:49;20.00;;;7.72;;
75362;SDS011;64122;51.988;5.892;2022-12-18T12:56:19;13.93;;;6.90;;
75362;SDS011;64122;51.988;5.892;2022-12-18T12:58:55;15.35;;;7.28;;
75362;SDS011;64122;51.988;5.892;2022-12-18T13:01:34;15.02;;;7.43;;
75362;SDS011;64122;51.988;5.892;2022-12-18T13:04:12;13.75;;;7.10;;
75362;SDS011;64122;51.988;5.892;2022-12-18T13:06:50;15.80;;;7.85;;
75362;SDS011;64122;51.988;5.892;2022-12-18T13:09:29;17.88;;;8.23;;
75362;SDS011;64122;51.988;5.892;2022-12-18T13:12:02;16.08;;;6.95;;
75362;SDS011;64122;51.988;5.892;2022-12-18T13:14:47;16.40;;;7.78;;
75362;SDS011;64122;51.988;5.892;2022-12-18T13:17:22;16.13;;;8.23;;
75362;SDS011;64122;51.988;5.892;2022-12-18T13:20:03;20.35;;;9.30;;
75362;SDS011;64122;51.988;5.892;2022-12-18T13:22:36;19.92;;;8.88;;
75362;SDS011;64122;51.988;5.892;2022-12-18T13:28:00;18.50;;;8.63;;
75362;SDS011;64122;51.988;5.892;2022-12-18T13:33:37;17.67;;;9.60;;
75362;SDS011;64122;51.988;5.892;2022-12-18T13:36:12;28.17;;;8.48;;
75362;SDS011;64122;51.988;5.892;2022-12-18T13:38:44;18.88;;;9.75;;
75362;SDS011;64122;51.988;5.892;2022-12-18T13:44:09;16.35;;;8.07;;
75362;SDS011;64122;51.988;5.892;2022-12-18T13:46:46;14.60;;;8.00;;
75362;SDS011;64122;51.988;5.892;2022-12-18T13:49:20;15.07;;;8.10;;
75362;SDS011;64122;51.988;5.892;2022-12-18T13:51:52;19.50;;;8.38;;
75362;SDS011;64122;51.988;5.892;2022-12-18T13:54:30;19.92;;;11.10;;
75362;SDS011;64122;51.988;5.892;2022-12-18T13:57:03;19.95;;;10.73;;
75362;SDS011;64122;51.988;5.892;2022-12-18T13:59:34;18.88;;;7.80;;
75362;SDS011;64122;51.988;5.892;2022-12-18T14:02:12;21.17;;;9.25;;
75362;SDS011;64122;51.988;5.892;2022-12-18T14:04:44;18.75;;;8.40;;
75362;SDS011;64122;51.988;5.892;2022-12-18T14:07:15;20.00;;;8.63;;
75362;SDS011;64122;51.988;5.892;2022-12-18T14:09:48;18.05;;;8.52;;
75362;SDS011;64122;51.988;5.892;2022-12-18T14:12:22;16.08;;;7.95;;
75362;SDS011;64122;51.988;5.892;2022-12-18T14:15:10;20.15;;;9.60;;
75362;SDS011;64122;51.988;5.892;2022-12-18T14:17:54;20.50;;;8.77;;
75362;SDS011;64122;51.988;5.892;2022-12-18T14:20:26;18.55;;;9.02;;
75362;SDS011;64122;51.988;5.892;2022-12-18T14:22:57;17.00;;;7.95;;
75362;SDS011;64122;51.988;5.892;2022-12-18T14:25:30;20.88;;;9.15;;
75362;SDS011;64122;51.988;5.892;2022-12-18T14:28:02;24.98;;;9.20;;
75362;SDS011;64122;51.988;5.892;2022-12-18T14:30:41;34.83;;;11.48;;
75362;SDS011;64122;51.988;5.892;2022-12-18T14:33:14;17.35;;;8.07;;
75362;SDS011;64122;51.988;5.892;2022-12-18T14:35:52;17.52;;;8.07;;
75362;SDS011;64122;51.988;5.892;2022-12-18T14:38:24;20.38;;;11.00;;
75362;SDS011;64122;51.988;5.892;2022-12-18T14:40:56;22.10;;;10.50;;
75362;SDS011;64122;51.988;5.892;2022-12-18T14:43:27;19.42;;;9.23;;
75362;SDS011;64122;51.988;5.892;2022-12-18T14:45:57;18.00;;;8.25;;
75362;SDS011;64122;51.988;5.892;2022-12-18T14:48:39;16.80;;;7.25;;
75362;SDS011;64122;51.988;5.892;2022-12-18T14:51:14;15.77;;;7.38;;
75362;SDS011;64122;51.988;5.892;2022-12-18T14:53:46;18.20;;;8.43;;
75362;SDS011;64122;51.988;5.892;2022-12-18T14:56:17;15.02;;;7.70;;
75362;SDS011;64122;51.988;5.892;2022-12-18T14:58:49;14.63;;;6.53;;
75362;SDS011;64122;51.988;5.892;2022-12-18T15:01:23;17.02;;;7.65;;
75362;SDS011;64122;51.988;5.892;2022-12-18T15:03:57;15.10;;;7.38;;
75362;SDS011;64122;51.988;5.892;2022-12-18T15:06:29;16.35;;;7.95;;
75362;SDS011;64122;51.988;5.892;2022-12-18T15:09:01;20.48;;;9.45;;
75362;SDS011;64122;51.988;5.892;2022-12-18T15:11:35;21.02;;;8.95;;
75362;SDS011;64122;51.988;5.892;2022-12-18T15:14:22;17.13;;;8.05;;
75362;SDS011;64122;51.988;5.892;2022-12-18T15:16:53;19.52;;;8.63;;
75362;SDS011;64122;51.988;5.892;2022-12-18T15:19:27;18.60;;;8.80;;
75362;SDS011;64122;51.988;5.892;2022-12-18T15:22:03;16.30;;;8.32;;
75362;SDS011;64122;51.988;5.892;2022-12-18T15:24:32;20.25;;;9.77;;
75362;SDS011;64122;51.988;5.892;2022-12-18T15:27:01;17.50;;;8.93;;
75362;SDS011;64122;51.988;5.892;2022-12-18T15:29:30;22.20;;;9.38;;
75362;SDS011;64122;51.988;5.892;2022-12-18T15:32:01;21.02;;;9.98;;
75362;SDS011;64122;51.988;5.892;2022-12-18T15:34:34;17.83;;;9.02;;
75362;SDS011;64122;51.988;5.892;2022-12-18T15:37:03;18.95;;;9.77;;
75362;SDS011;64122;51.988;5.892;2022-12-18T15:39:32;18.83;;;9.45;;
75362;SDS011;64122;51.988;5.892;2022-12-18T15:42:02;19.25;;;8.90;;
75362;SDS011;64122;51.988;5.892;2022-12-18T15:44:44;17.73;;;9.20;;
75362;SDS011;64122;51.988;5.892;2022-12-18T15:47:14;20.77;;;9.98;;
75362;SDS011;64122;51.988;5.892;2022-12-18T15:49:46;17.92;;;9.70;;
75362;SDS011;64122;51.988;5.892;2022-12-18T15:52:15;24.67;;;10.10;;
75362;SDS011;64122;51.988;5.892;2022-12-18T15:54:51;21.17;;;9.23;;
75362;SDS011;64122;51.988;5.892;2022-12-18T15:57:33;21.65;;;8.65;;
75362;SDS011;64122;51.988;5.892;2022-12-18T16:00:02;18.98;;;9.73;;
75362;SDS011;64122;51.988;5.892;2022-12-18T16:02:32;24.13;;;11.23;;
75362;SDS011;64122;51.988;5.892;2022-12-18T16:05:05;18.90;;;9.40;;
75362;SDS011;64122;51.988;5.892;2022-12-18T16:07:42;23.25;;;10.93;;
75362;SDS011;64122;51.988;5.892;2022-12-18T16:10:12;19.60;;;9.52;;
75362;SDS011;64122;51.988;5.892;2022-12-18T16:12:41;18.88;;;9.43;;
75362;SDS011;64122;51.988;5.892;2022-12-18T16:15:11;19.75;;;9.48;;
75362;SDS011;64122;51.988;5.892;2022-12-18T16:17:42;21.00;;;10.27;;
75362;SDS011;64122;51.988;5.892;2022-12-18T16:20:15;20.33;;;10.32;;
75362;SDS011;64122;51.988;5.892;2022-12-18T16:22:46;21.33;;;10.43;;
75362;SDS011;64122;51.988;5.892;2022-12-18T16:25:18;21.35;;;10.10;;
75362;SDS011;64122;51.988;5.892;2022-12-18T16:27:49;22.02;;;11.43;;
75362;SDS011;64122;51.988;5.892;2022-12-18T16:30:20;21.83;;;10.00;;
75362;SDS011;64122;51.988;5.892;2022-12-18T16:32:53;21.98;;;10.45;;
75362;SDS011;64122;51.988;5.892;2022-12-18T16:35:25;20.80;;;11.15;;
75362;SDS011;64122;51.988;5.892;2022-12-18T16:37:55;26.65;;;11.60;;
75362;SDS011;64122;51.988;5.892;2022-12-18T16:40:24;28.45;;;10.73;;
75362;SDS011;64122;51.988;5.892;2022-12-18T16:42:53;19.90;;;10.95;;
75362;SDS011;64122;51.988;5.892;2022-12-18T16:45:22;25.52;;;11.55;;
75362;SDS011;64122;51.988;5.892;2022-12-18T16:47:52;25.30;;;11.38;;
75362;SDS011;64122;51.988;5.892;2022-12-18T16:50:21;28.35;;;10.85;;
75362;SDS011;64122;51.988;5.892;2022-12-18T16:52:53;21.00;;;9.88;;
75362;SDS011;64122;51.988;5.892;2022-12-18T16:55:22;26.33;;;11.20;;
75362;SDS011;64122;51.988;5.892;2022-12-18T16:57:51;25.13;;;11.50;;
75362;SDS011;64122;51.988;5.892;2022-12-18T17:00:20;25.10;;;11.63;;
75362;SDS011;64122;51.988;5.892;2022-12-18T17:02:49;25.20;;;11.18;;
75362;SDS011;64122;51.988;5.892;2022-12-18T17:05:21;23.38;;;11.82;;
75362;SDS011;64122;51.988;5.892;2022-12-18T17:07:52;22.40;;;11.43;;
75362;SDS011;64122;51.988;5.892;2022-12-18T17:10:22;22.70;;;10.70;;
75362;SDS011;64122;51.988;5.892;2022-12-18T17:12:51;22.00;;;10.75;;
75362;SDS011;64122;51.988;5.892;2022-12-18T17:15:20;23.95;;;11.02;;
75362;SDS011;64122;51.988;5.892;2022-12-18T17:17:50;28.63;;;12.23;;
75362;SDS011;64122;51.988;5.892;2022-12-18T17:20:19;27.42;;;12.20;;
75362;SDS011;64122;51.988;5.892;2022-12-18T17:22:48;26.02;;;12.10;;
75362;SDS011;64122;51.988;5.892;2022-12-18T17:25:20;26.30;;;12.70;;
75362;SDS011;64122;51.988;5.892;2022-12-18T17:27:49;24.45;;;11.18;;
75362;SDS011;64122;51.988;5.892;2022-12-18T17:30:18;23.38;;;11.18;;
75362;SDS011;64122;51.988;5.892;2022-12-18T17:32:48;26.73;;;11.93;;
75362;SDS011;64122;51.988;5.892;2022-12-18T17:35:17;25.70;;;11.48;;
75362;SDS011;64122;51.988;5.892;2022-12-18T17:37:47;24.33;;;12.38;;
75362;SDS011;64122;51.988;5.892;2022-12-18T17:40:16;24.25;;;11.77;;
75362;SDS011;64122;51.988;5.892;2022-12-18T17:42:51;32.22;;;12.27;;
75362;SDS011;64122;51.988;5.892;2022-12-18T17:45:20;35.28;;;16.60;;
75362;SDS011;64122;51.988;5.892;2022-12-18T17:47:50;23.58;;;11.68;;
75362;SDS011;64122;51.988;5.892;2022-12-18T17:50:19;25.52;;;13.00;;
75362;SDS011;64122;51.988;5.892;2022-12-18T17:52:48;23.67;;;11.98;;
75362;SDS011;64122;51.988;5.892;2022-12-18T17:55:20;27.42;;;12.75;;
75362;SDS011;64122;51.988;5.892;2022-12-18T17:57:50;23.77;;;13.07;;
75362;SDS011;64122;51.988;5.892;2022-12-18T18:00:22;25.05;;;11.98;;
75362;SDS011;64122;51.988;5.892;2022-12-18T18:02:51;25.83;;;12.48;;
75362;SDS011;64122;51.988;5.892;2022-12-18T18:05:21;28.98;;;13.90;;
75362;SDS011;64122;51.988;5.892;2022-12-18T18:07:50;26.13;;;13.00;;
75362;SDS011;64122;51.988;5.892;2022-12-18T18:10:22;22.63;;;11.75;;
75362;SDS011;64122;51.988;5.892;2022-12-18T18:12:51;27.77;;;13.55;;
75362;SDS011;64122;51.988;5.892;2022-12-18T18:15:33;30.80;;;12.00;;
75362;SDS011;64122;51.988;5.892;2022-12-18T18:18:02;23.60;;;12.45;;
75362;SDS011;64122;51.988;5.892;2022-12-18T18:20:32;28.77;;;13.85;;
75362;SDS011;64122;51.988;5.892;2022-12-18T18:23:01;27.88;;;14.02;;
75362;SDS011;64122;51.988;5.892;2022-12-18T18:25:34;25.67;;;13.30;;
75362;SDS011;64122;51.988;5.892;2022-12-18T18:28:04;27.23;;;13.00;;
75362;SDS011;64122;51.988;5.892;2022-12-18T18:30:35;24.77;;;12.50;;
75362;SDS011;64122;51.988;5.892;2022-12-18T18:33:04;29.15;;;13.32;;
75362;SDS011;64122;51.988;5.892;2022-12-18T18:35:33;29.08;;;13.25;;
75362;SDS011;64122;51.988;5.892;2022-12-18T18:38:03;28.08;;;13.02;;
75362;SDS011;64122;51.988;5.892;2022-12-18T18:40:35;25.10;;;13.07;;
75362;SDS011;64122;51.988;5.892;2022-12-18T18:43:05;23.20;;;12.00;;
75362;SDS011;64122;51.988;5.892;2022-12-18T18:45:34;27.40;;;13.63;;
75362;SDS011;64122;51.988;5.892;2022-12-18T18:48:06;24.25;;;12.02;;
75362;SDS011;64122;51.988;5.892;2022-12-18T18:50:35;26.42;;;13.35;;
75362;SDS011;64122;51.988;5.892;2022-12-18T18:53:04;26.77;;;13.45;;
75362;SDS011;64122;51.988;5.892;2022-12-18T18:55:37;28.23;;;14.40;;
75362;SDS011;64122;51.988;5.892;2022-12-18T18:58:06;25.05;;;12.70;;
75362;SDS011;64122;51.988;5.892;2022-12-18T19:00:38;28.30;;;12.82;;
75362;SDS011;64122;51.988;5.892;2022-12-18T19:03:07;24.63;;;12.75;;
75362;SDS011;64122;51.988;5.892;2022-12-18T19:05:39;28.63;;;14.15;;
75362;SDS011;64122;51.988;5.892;2022-12-18T19:08:08;23.83;;;12.43;;
75362;SDS011;64122;51.988;5.892;2022-12-18T19:10:41;27.58;;;13.50;;
75362;SDS011;64122;51.988;5.892;2022-12-18T19:13:13;29.80;;;15.80;;
75362;SDS011;64122;51.988;5.892;2022-12-18T19:15:50;25.58;;;12.98;;
75362;SDS011;64122;51.988;5.892;2022-12-18T19:18:22;26.73;;;12.65;;
75362;SDS011;64122;51.988;5.892;2022-12-18T19:20:55;28.50;;;13.55;;
75362;SDS011;64122;51.988;5.892;2022-12-18T19:23:25;26.48;;;14.15;;
75362;SDS011;64122;51.988;5.892;2022-12-18T19:26:00;29.23;;;14.75;;
75362;SDS011;64122;51.988;5.892;2022-12-18T19:28:32;27.23;;;13.75;;
75362;SDS011;64122;51.988;5.892;2022-12-18T19:31:02;26.77;;;13.57;;
75362;SDS011;64122;51.988;5.892;2022-12-18T19:33:34;27.58;;;14.27;;
75362;SDS011;64122;51.988;5.892;2022-12-18T19:36:08;28.45;;;14.10;;
75362;SDS011;64122;51.988;5.892;2022-12-18T19:38:38;26.67;;;13.45;;
75362;SDS011;64122;51.988;5.892;2022-12-18T19:41:11;30.75;;;14.48;;
75362;SDS011;64122;51.988;5.892;2022-12-18T19:43:41;27.98;;;13.82;;
75362;SDS011;64122;51.988;5.892;2022-12-18T19:46:11;27.38;;;13.02;;
75362;SDS011;64122;51.988;5.892;2022-12-18T19:48:43;26.48;;;13.40;;
75362;SDS011;64122;51.988;5.892;2022-12-18T19:51:14;29.25;;;13.75;;
75362;SDS011;64122;51.988;5.892;2022-12-18T19:53:45;30.15;;;13.73;;
75362;SDS011;64122;51.988;5.892;2022-12-18T19:56:19;28.98;;;14.27;;
75362;SDS011;64122;51.988;5.892;2022-12-18T19:58:50;27.98;;;13.93;;
75362;SDS011;64122;51.988;5.892;2022-12-18T20:01:20;27.50;;;13.15;;
75362;SDS011;64122;51.988;5.892;2022-12-18T20:03:50;26.48;;;13.75;;
75362;SDS011;64122;51.988;5.892;2022-12-18T20:06:22;29.83;;;14.77;;
75362;SDS011;64122;51.988;5.892;2022-12-18T20:08:54;25.50;;;12.90;;
75362;SDS011;64122;51.988;5.892;2022-12-18T20:11:27;29.55;;;13.82;;
75362;SDS011;64122;51.988;5.892;2022-12-18T20:13:57;29.00;;;13.45;;
75362;SDS011;64122;51.988;5.892;2022-12-18T20:16:29;29.08;;;14.05;;
75362;SDS011;64122;51.988;5.892;2022-12-18T20:18:59;29.48;;;15.20;;
75362;SDS011;64122;51.988;5.892;2022-12-18T20:21:28;32.50;;;15.57;;
75362;SDS011;64122;51.988;5.892;2022-12-18T20:23:57;34.13;;;15.65;;
75362;SDS011;64122;51.988;5.892;2022-12-18T20:26:30;31.88;;;15.88;;
75362;SDS011;64122;51.988;5.892;2022-12-18T20:28:59;27.48;;;14.60;;
75362;SDS011;64122;51.988;5.892;2022-12-18T20:31:31;30.80;;;14.85;;
75362;SDS011;64122;51.988;5.892;2022-12-18T20:34:01;26.08;;;13.25;;
75362;SDS011;64122;51.988;5.892;2022-12-18T20:36:30;27.08;;;13.35;;
75362;SDS011;64122;51.988;5.892;2022-12-18T20:38:59;28.77;;;13.90;;
75362;SDS011;64122;51.988;5.892;2022-12-18T20:41:31;29.95;;;14.85;;
75362;SDS011;64122;51.988;5.892;2022-12-18T20:44:00;30.55;;;14.57;;
75362;SDS011;64122;51.988;5.892;2022-12-18T20:46:30;28.92;;;14.82;;
75362;SDS011;64122;51.988;5.892;2022-12-18T20:49:02;26.90;;;14.75;;
75362;SDS011;64122;51.988;5.892;2022-12-18T20:51:31;29.55;;;14.27;;
75362;SDS011;64122;51.988;5.892;2022-12-18T20:54:00;33.63;;;15.32;;
75362;SDS011;64122;51.988;5.892;2022-12-18T20:56:32;29.00;;;14.38;;
75362;SDS011;64122;51.988;5.892;2022-12-18T20:59:02;29.13;;;15.25;;
75362;SDS011;64122;51.988;5.892;2022-12-18T21:01:31;35.70;;;16.35;;
75362;SDS011;64122;51.988;5.892;2022-12-18T21:04:03;29.70;;;15.02;;
75362;SDS011;64122;51.988;5.892;2022-12-18T21:06:32;31.58;;;15.15;;
75362;SDS011;64122;51.988;5.892;2022-12-18T21:09:02;29.77;;;15.50;;
75362;SDS011;64122;51.988;5.892;2022-12-18T21:11:34;26.40;;;13.55;;
75362;SDS011;64122;51.988;5.892;2022-12-18T21:14:16;28.65;;;13.63;;
75362;SDS011;64122;51.988;5.892;2022-12-18T21:16:48;28.02;;;13.82;;
75362;SDS011;64122;51.988;5.892;2022-12-18T21:19:18;28.13;;;13.00;;
75362;SDS011;64122;51.988;5.892;2022-12-18T21:21:50;30.52;;;15.18;;
75362;SDS011;64122;51.988;5.892;2022-12-18T21:24:21;28.20;;;14.40;;
75362;SDS011;64122;51.988;5.892;2022-12-18T21:26:53;27.70;;;13.30;;
75362;SDS011;64122;51.988;5.892;2022-12-18T21:29:25;29.02;;;14.95;;
75362;SDS011;64122;51.988;5.892;2022-12-18T21:31:54;25.75;;;13.40;;
75362;SDS011;64122;51.988;5.892;2022-12-18T21:34:25;28.83;;;13.95;;
75362;SDS011;64122;51.988;5.892;2022-12-18T21:36:56;28.40;;;13.90;;
75362;SDS011;64122;51.988;5.892;2022-12-18T21:39:27;27.70;;;14.10;;
75362;SDS011;64122;51.988;5.892;2022-12-18T21:42:00;31.05;;;15.02;;
75362;SDS011;64122;51.988;5.892;2022-12-18T21:44:41;32.65;;;15.30;;
75362;SDS011;64122;51.988;5.892;2022-12-18T21:47:11;27.17;;;14.05;;
75362;SDS011;64122;51.988;5.892;2022-12-18T21:49:40;32.08;;;15.20;;
75362;SDS011;64122;51.988;5.892;2022-12-18T21:52:09;31.02;;;14.73;;
75362;SDS011;64122;51.988;5.892;2022-12-18T21:54:39;30.55;;;15.05;;
75362;SDS011;64122;51.988;5.892;2022-12-18T21:57:11;30.98;;;14.27;;
75362;SDS011;64122;51.988;5.892;2022-12-18T21:59:41;31.63;;;15.55;;
75362;SDS011;64122;51.988;5.892;2022-12-18T22:02:11;27.67;;;14.60;;
75362;SDS011;64122;51.988;5.892;2022-12-18T22:04:42;31.35;;;15.10;;
75362;SDS011;64122;51.988;5.892;2022-12-18T22:07:12;31.85;;;14.98;;
75362;SDS011;64122;51.988;5.892;2022-12-18T22:09:42;28.73;;;13.90;;
75362;SDS011;64122;51.988;5.892;2022-12-18T22:12:14;32.80;;;15.00;;
75362;SDS011;64122;51.988;5.892;2022-12-18T22:15:00;32.72;;;15.40;;
75362;SDS011;64122;51.988;5.892;2022-12-18T22:17:30;27.38;;;14.05;;
75362;SDS011;64122;51.988;5.892;2022-12-18T22:19:59;29.98;;;15.48;;
75362;SDS011;64122;51.988;5.892;2022-12-18T22:22:29;31.60;;;15.90;;
75362;SDS011;64122;51.988;5.892;2022-12-18T22:24:58;32.75;;;15.15;;
75362;SDS011;64122;51.988;5.892;2022-12-18T22:27:30;31.00;;;15.27;;
75362;SDS011;64122;51.988;5.892;2022-12-18T22:29:59;33.47;;;15.13;;
75362;SDS011;64122;51.988;5.892;2022-12-18T22:32:29;34.60;;;15.85;;
75362;SDS011;64122;51.988;5.892;2022-12-18T22:34:58;27.30;;;15.15;;
75362;SDS011;64122;51.988;5.892;2022-12-18T22:37:28;30.05;;;14.48;;
75362;SDS011;64122;51.988;5.892;2022-12-18T22:39:57;29.73;;;15.20;;